Barrancabermeja, Barrancabermeja Yariguies Airport (SKEJ)

NameBarrancabermeja Yariguies Airport
CityBarrancabermeja
CountryColombia
ICAOSKEJ
IATAEJA
Altitude126 m
CoordinatesGoogle Map
Live Air TrafficLiveATC.net
METARSKEJ 170200Z 33003KT 9999 -DZ SCT020 BKN100 24/23 A2989
2019-07-17 02:00:00 Wind: Northwest (330°) 1.54 m/s - Visibility: > 10000 m - Weather: Light Drizzle - Temperature: 24 °C - Dew point: 23 °C - Humidity: 94.2% - Pressure: 1012.19 hPa
Statistics

The table below shows the detailed information of all flights to/from Barrancabermeja, Barrancabermeja Yariguies Airport (SKEJ).

Ident Aircraft Coming fromFrom Going toTo Owner nameOwnerDate
N598EL - A318 - Avianca AVA8587 AIRBUS A-318 A318 Barrancabermeja, Colombia (SKEJ) SKEJ
252 km
Bogota, Colombia (SKBO) SKBO Avianca Avianca Sat, 13 Jul 2019 13:18:09 +0000 13/7/2019 1:18 pm
N451AV - A320 - Avianca AVA8580 AIRBUS A-320 A320 Bogota, Colombia (SKBO) SKBO
129 km
Barrancabermeja, Colombia (SKEJ) SKEJ
141 km
Avianca Avianca Sun, 30 Jun 2019 21:00:40 +0000 30/6/2019 9:00 pm
N595EL - A318 - Avianca AVA8587 AIRBUS A-318 A318 Barrancabermeja, Colombia (SKEJ) SKEJ
241 km
Bogota, Colombia (SKBO) SKBO Avianca Avianca Mon, 10 Jun 2019 13:05:58 +0000 10/6/2019 1:05 pm
N595EL - A318 - Avianca AVA8586 AIRBUS A-318 A318 Bogota, Colombia (SKBO) SKBO
1 km
Barrancabermeja, Colombia (SKEJ) SKEJ
262 km
Avianca Avianca Fri, 07 Jun 2019 11:13:08 +0000 7/6/2019 11:13 am